Time;durP1;ratioP1;P1;durP2;ratioP2;P2;SDS_P1;SDS_P2;PMS_P1;PMS_P2;Temp;Humidity;BMP_temperature;BMP_pressure;BME280_temperature;BME280_humidity;BME280_pressure;Samples;Min_cycle;Max_cycle;Signal;HPM_P1;HPM_P2
2023/06/11 00:20:09;;;;;;;;;;;;;;;22.88;56.92;99870.94;41545487;28;19929;-81
2023/06/11 00:40:09;;;;;;;;;;;;;;;22.82;56.84;99865.22;41561312;28;19983;-79
2023/06/11 01:00:12;;;;;;;;;;;;;;;22.82;57.01;99875.78;41641891;28;19925;-81
2023/06/11 01:20:14;;;;;;;;;;;;;;;22.77;56.81;99871.91;41734093;28;20298;-79
2023/06/11 01:40:14;;;;;;;;;;;;;;;22.76;56.65;99876.34;41710399;28;19939;-81
2023/06/11 02:00:15;;;;;;;;;;;;;;;22.72;56.45;99880.25;41711837;28;20311;-81
2023/06/11 02:20:17;;;;;;;;;;;;;;;22.67;56.20;99887.78;41707763;28;20136;-78
2023/06/11 02:40:18;;;;;;;;;;;;;;;22.61;56.29;99889.16;41712461;28;20308;-82
2023/06/11 03:00:18;;;;;;;;;;;;;;;22.56;56.16;99894.03;41681352;28;19929;-83
2023/06/11 03:20:18;;;;;;;;;;;;;;;22.60;56.05;99890.13;42609540;23;19924;-75
2023/06/11 03:40:19;;;;;;;;;;;;;;;22.59;55.71;99906.09;42124797;28;20006;-76
2023/06/11 04:00:20;;;;;;;;;;;;;;;22.64;55.54;99910.00;42123094;28;19924;-75
2023/06/11 04:20:20;;;;;;;;;;;;;;;22.71;55.37;99911.06;41898747;28;19924;-76
2023/06/11 04:40:23;;;;;;;;;;;;;;;22.75;54.88;99909.00;41891947;28;19929;-75
2023/06/11 05:00:23;;;;;;;;;;;;;;;22.78;54.93;99919.28;41881057;28;19929;-75
2023/06/11 05:20:26;;;;;;;;;;;;;;;22.80;54.73;99930.53;41871478;28;19932;-76
2023/06/11 05:40:26;;;;;;;;;;;;;;;22.81;54.40;99928.72;41869807;28;19932;-75
2023/06/11 06:00:27;;;;;;;;;;;;;;;22.96;55.04;99937.88;41845683;28;20268;-74
2023/06/11 06:20:28;;;;;;;;;;;;;;;23.12;55.50;99947.84;41830378;28;19932;-74
2023/06/11 06:40:28;;;;;;;;;;;;;;;23.23;55.48;99957.44;41862863;28;21557;-75
2023/06/11 07:00:28;;;;;;;;;;;;;;;23.29;54.84;99962.16;41848661;28;19936;-77
2023/06/11 07:20:29;;;;;;;;;;;;;;;23.32;53.87;99969.78;41857854;28;19933;-77
2023/06/11 07:40:29;;;;;;;;;;;;;;;23.38;54.10;99964.94;41904269;28;19912;-76
2023/06/11 08:00:34;;;;;;;;;;;;;;;23.44;51.98;99978.38;41873726;28;19967;-77
2023/06/11 08:20:35;;;;;;;;;;;;;;;23.52;52.26;99980.28;41873927;28;19936;-77
2023/06/11 08:40:39;;;;;;;;;;;;;;;23.55;51.95;99980.03;41896566;28;20015;-78
2023/06/11 09:00:46;;;;;;;;;;;;;;;23.58;51.76;100000.03;41902069;28;19982;-76
2023/06/11 09:20:50;;;;;;;;;;;;;;;23.57;51.94;99990.44;41896930;28;19936;-75
2023/06/11 09:40:52;;;;;;;;;;;;;;;23.67;52.59;99996.53;41886531;28;20383;-76
2023/06/11 10:00:58;;;;;;;;;;;;;;;23.85;53.48;99998.41;41878054;28;19939;-72
2023/06/11 10:21:00;;;;;;;;;;;;;;;24.00;54.93;99991.69;41829567;28;20493;-73
2023/06/11 10:41:03;;;;;;;;;;;;;;;24.04;54.83;99989.59;41835089;28;19931;-72
2023/06/11 11:01:06;;;;;;;;;;;;;;;23.96;53.20;99999.09;41755978;28;19948;-71
2023/06/11 11:21:06;;;;;;;;;;;;;;;23.86;55.17;99982.41;41755033;28;19925;-71
2023/06/11 11:41:10;;;;;;;;;;;;;;;23.78;56.02;99984.97;41740619;28;20359;-72
2023/06/11 12:01:27;;;;;;;;;;;;;;;23.78;54.25;99983.13;41718038;28;20598;-74
2023/06/11 12:21:27;;;;;;;;;;;;;;;23.88;56.86;99958.47;41725726;28;19964;-70
2023/06/11 12:41:27;;;;;;;;;;;;;;;24.10;54.36;99947.50;41767700;28;20300;-72
2023/06/11 13:01:33;;;;;;;;;;;;;;;24.19;51.86;99950.25;41829361;28;19932;-73
2023/06/11 13:21:34;;;;;;;;;;;;;;;24.41;50.77;99946.31;41842604;28;19933;-73
2023/06/11 13:41:34;;;;;;;;;;;;;;;24.46;50.12;99934.31;41836427;28;20399;-72
2023/06/11 14:01:35;;;;;;;;;;;;;;;24.57;49.16;99930.59;41804354;28;19943;-73
2023/06/11 14:21:35;;;;;;;;;;;;;;;24.52;47.67;99954.03;41814861;28;19932;-72
2023/06/11 14:41:35;;;;;;;;;;;;;;;24.45;46.72;99956.47;41826568;28;20283;-74
2023/06/11 15:01:36;;;;;;;;;;;;;;;24.42;46.87;99962.03;41843221;28;19943;-73
2023/06/11 15:21:37;;;;;;;;;;;;;;;24.41;46.19;99976.28;41824870;28;20705;-74
2023/06/11 15:41:37;;;;;;;;;;;;;;;24.41;46.20;100004.53;41854629;28;19955;-73
2023/06/11 16:01:37;;;;;;;;;;;;;;;24.34;45.79;100006.13;41845438;28;20019;-71
2023/06/11 16:21:38;;;;;;;;;;;;;;;24.32;46.26;100034.56;41813815;28;19924;-71
2023/06/11 16:41:39;;;;;;;;;;;;;;;24.27;46.89;100049.03;41806354;28;19925;-70
2023/06/11 17:01:40;;;;;;;;;;;;;;;24.31;47.33;100052.22;41833559;28;20297;-72
2023/06/11 17:21:40;;;;;;;;;;;;;;;24.25;47.42;100053.63;41702901;28;20075;-72
2023/06/11 17:41:40;;;;;;;;;;;;;;;24.22;47.50;100072.47;41646028;28;19960;-71
2023/06/11 18:01:40;;;;;;;;;;;;;;;24.06;47.51;100093.41;41671671;28;19928;-70
2023/06/11 18:21:41;;;;;;;;;;;;;;;24.04;48.12;100100.69;41627304;28;19968;-70
2023/06/11 18:41:41;;;;;;;;;;;;;;;24.02;46.92;100131.72;41662516;28;19944;-71
2023/06/11 19:01:42;;;;;;;;;;;;;;;23.85;45.99;100144.66;41649607;28;20325;-70
2023/06/11 19:21:43;;;;;;;;;;;;;;;23.68;45.24;100164.75;41785344;28;19924;-70
2023/06/11 19:41:43;;;;;;;;;;;;;;;23.45;45.12;100178.25;41897398;28;20403;-70
2023/06/11 20:01:43;;;;;;;;;;;;;;;23.37;45.05;100174.63;41823507;28;19932;-71
2023/06/11 20:21:45;;;;;;;;;;;;;;;23.21;45.42;100183.91;41904135;28;19935;-72
2023/06/11 20:41:45;;;;;;;;;;;;;;;23.02;46.46;100188.16;41914037;28;19925;-73
2023/06/11 21:01:45;;;;;;;;;;;;;;;23.01;46.56;100170.66;41893704;28;21674;-71
2023/06/11 21:21:46;;;;;;;;;;;;;;;22.90;45.13;100186.63;41901314;28;19936;-72
2023/06/11 21:41:46;;;;;;;;;;;;;;;22.71;44.52;100193.47;41883612;28;19967;-71
2023/06/11 22:01:46;;;;;;;;;;;;;;;22.51;43.92;100197.88;41864869;28;19932;-71
2023/06/11 22:21:47;;;;;;;;;;;;;;;22.43;44.15;100181.03;41735396;28;19929;-72
2023/06/11 22:41:47;;;;;;;;;;;;;;;22.21;44.06;100180.19;41720580;28;20398;-70
2023/06/11 23:01:48;;;;;;;;;;;;;;;22.17;44.16;100170.88;41717528;28;19924;-73
2023/06/11 23:21:48;;;;;;;;;;;;;;;22.01;44.11;100160.81;41865141;28;19925;-71
2023/06/11 23:41:48;;;;;;;;;;;;;;;21.81;44.20;100158.00;41878875;28;19924;-71
